sensor_id;sensor_type;location;lat;lon;timestamp;P1;durP1;ratioP1;P2;durP2;ratioP2
9374;SDS011;4727;51.202;6.344;2022-08-21T00:01:25;9.57;;;6.30;;
9374;SDS011;4727;51.202;6.344;2022-08-21T00:03:53;10.17;;;6.40;;
9374;SDS011;4727;51.202;6.344;2022-08-21T00:06:19;8.33;;;6.97;;
9374;SDS011;4727;51.202;6.344;2022-08-21T00:08:46;9.03;;;6.60;;
9374;SDS011;4727;51.202;6.344;2022-08-21T00:11:12;10.13;;;7.37;;
9374;SDS011;4727;51.202;6.344;2022-08-21T00:13:38;8.07;;;6.73;;
9374;SDS011;4727;51.202;6.344;2022-08-21T00:16:03;9.63;;;6.97;;
9374;SDS011;4727;51.202;6.344;2022-08-21T00:18:29;8.37;;;7.43;;
9374;SDS011;4727;51.202;6.344;2022-08-21T00:20:55;8.73;;;7.10;;
9374;SDS011;4727;51.202;6.344;2022-08-21T00:23:21;10.33;;;7.93;;
9374;SDS011;4727;51.202;6.344;2022-08-21T00:25:47;9.23;;;8.20;;
9374;SDS011;4727;51.202;6.344;2022-08-21T00:28:12;10.90;;;8.67;;
9374;SDS011;4727;51.202;6.344;2022-08-21T00:30:39;12.60;;;9.27;;
9374;SDS011;4727;51.202;6.344;2022-08-21T00:33:05;9.97;;;8.83;;
9374;SDS011;4727;51.202;6.344;2022-08-21T00:35:33;9.37;;;8.57;;
9374;SDS011;4727;51.202;6.344;2022-08-21T00:38:01;14.30;;;9.77;;
9374;SDS011;4727;51.202;6.344;2022-08-21T00:40:33;10.90;;;9.77;;
9374;SDS011;4727;51.202;6.344;2022-08-21T00:43:11;10.30;;;9.37;;
9374;SDS011;4727;51.202;6.344;2022-08-21T00:45:38;11.70;;;10.50;;
9374;SDS011;4727;51.202;6.344;2022-08-21T00:48:04;12.03;;;10.00;;
9374;SDS011;4727;51.202;6.344;2022-08-21T00:50:32;11.23;;;10.13;;
9374;SDS011;4727;51.202;6.344;2022-08-21T00:53:00;11.17;;;10.07;;
9374;SDS011;4727;51.202;6.344;2022-08-21T00:55:28;13.23;;;10.73;;
9374;SDS011;4727;51.202;6.344;2022-08-21T00:57:55;10.90;;;9.70;;
9374;SDS011;4727;51.202;6.344;2022-08-21T01:00:24;11.10;;;10.00;;
9374;SDS011;4727;51.202;6.344;2022-08-21T01:02:56;12.00;;;10.00;;
9374;SDS011;4727;51.202;6.344;2022-08-21T01:05:22;10.90;;;9.73;;
9374;SDS011;4727;51.202;6.344;2022-08-21T01:07:48;12.80;;;11.50;;
9374;SDS011;4727;51.202;6.344;2022-08-21T01:10:14;14.33;;;11.57;;
9374;SDS011;4727;51.202;6.344;2022-08-21T01:12:41;12.90;;;11.53;;
9374;SDS011;4727;51.202;6.344;2022-08-21T01:15:07;14.50;;;11.63;;
9374;SDS011;4727;51.202;6.344;2022-08-21T01:17:34;12.50;;;11.20;;
9374;SDS011;4727;51.202;6.344;2022-08-21T01:20:01;13.33;;;11.00;;
9374;SDS011;4727;51.202;6.344;2022-08-21T01:22:29;12.50;;;11.20;;
9374;SDS011;4727;51.202;6.344;2022-08-21T01:24:55;13.43;;;10.97;;
9374;SDS011;4727;51.202;6.344;2022-08-21T01:27:21;12.70;;;11.40;;
9374;SDS011;4727;51.202;6.344;2022-08-21T01:32:23;13.67;;;12.23;;
9374;SDS011;4727;51.202;6.344;2022-08-21T01:34:50;13.20;;;11.80;;
9374;SDS011;4727;51.202;6.344;2022-08-21T01:37:18;14.97;;;12.10;;
9374;SDS011;4727;51.202;6.344;2022-08-21T01:39:45;13.20;;;11.67;;
9374;SDS011;4727;51.202;6.344;2022-08-21T01:42:12;13.10;;;11.80;;
9374;SDS011;4727;51.202;6.344;2022-08-21T01:44:38;13.03;;;11.80;;
9374;SDS011;4727;51.202;6.344;2022-08-21T01:47:06;16.17;;;12.90;;
9374;SDS011;4727;51.202;6.344;2022-08-21T01:49:35;13.63;;;12.30;;
9374;SDS011;4727;51.202;6.344;2022-08-21T01:52:02;12.30;;;11.20;;
9374;SDS011;4727;51.202;6.344;2022-08-21T01:54:28;15.27;;;11.77;;
9374;SDS011;4727;51.202;6.344;2022-08-21T01:56:55;13.70;;;12.40;;
9374;SDS011;4727;51.202;6.344;2022-08-21T01:59:22;13.23;;;11.83;;
9374;SDS011;4727;51.202;6.344;2022-08-21T02:01:48;13.67;;;12.53;;
9374;SDS011;4727;51.202;6.344;2022-08-21T02:04:14;14.80;;;13.30;;
9374;SDS011;4727;51.202;6.344;2022-08-21T02:06:40;13.60;;;12.40;;
9374;SDS011;4727;51.202;6.344;2022-08-21T02:09:07;15.50;;;13.63;;
9374;SDS011;4727;51.202;6.344;2022-08-21T02:11:34;14.50;;;13.00;;
9374;SDS011;4727;51.202;6.344;2022-08-21T02:14:00;14.73;;;13.27;;
9374;SDS011;4727;51.202;6.344;2022-08-21T02:16:26;15.47;;;13.87;;
9374;SDS011;4727;51.202;6.344;2022-08-21T02:18:51;15.73;;;14.17;;
9374;SDS011;4727;51.202;6.344;2022-08-21T02:21:17;15.87;;;14.13;;
9374;SDS011;4727;51.202;6.344;2022-08-21T02:23:43;16.17;;;13.80;;
9374;SDS011;4727;51.202;6.344;2022-08-21T02:26:09;13.93;;;12.50;;
9374;SDS011;4727;51.202;6.344;2022-08-21T02:28:35;14.57;;;13.17;;
9374;SDS011;4727;51.202;6.344;2022-08-21T02:31:03;16.13;;;13.87;;
9374;SDS011;4727;51.202;6.344;2022-08-21T02:33:29;16.43;;;13.50;;
9374;SDS011;4727;51.202;6.344;2022-08-21T02:35:56;15.93;;;14.33;;
9374;SDS011;4727;51.202;6.344;2022-08-21T02:38:23;15.27;;;13.03;;
9374;SDS011;4727;51.202;6.344;2022-08-21T02:40:51;14.27;;;12.97;;
9374;SDS011;4727;51.202;6.344;2022-08-21T02:43:19;15.60;;;13.40;;
9374;SDS011;4727;51.202;6.344;2022-08-21T02:45:48;14.93;;;13.40;;
9374;SDS011;4727;51.202;6.344;2022-08-21T02:48:18;14.10;;;12.77;;
9374;SDS011;4727;51.202;6.344;2022-08-21T02:50:47;15.63;;;14.23;;
9374;SDS011;4727;51.202;6.344;2022-08-21T02:53:16;15.30;;;13.70;;
9374;SDS011;4727;51.202;6.344;2022-08-21T02:55:43;15.70;;;14.10;;
9374;SDS011;4727;51.202;6.344;2022-08-21T02:58:10;16.10;;;14.60;;
9374;SDS011;4727;51.202;6.344;2022-08-21T03:00:36;15.77;;;14.17;;
9374;SDS011;4727;51.202;6.344;2022-08-21T03:03:02;15.43;;;13.87;;
9374;SDS011;4727;51.202;6.344;2022-08-21T03:05:29;15.63;;;14.00;;
9374;SDS011;4727;51.202;6.344;2022-08-21T03:07:56;17.37;;;14.40;;
9374;SDS011;4727;51.202;6.344;2022-08-21T03:10:24;15.87;;;14.13;;
9374;SDS011;4727;51.202;6.344;2022-08-21T03:12:50;16.40;;;14.20;;
9374;SDS011;4727;51.202;6.344;2022-08-21T03:15:16;17.53;;;14.23;;
9374;SDS011;4727;51.202;6.344;2022-08-21T03:17:43;14.93;;;13.43;;
9374;SDS011;4727;51.202;6.344;2022-08-21T03:20:10;15.13;;;13.63;;
9374;SDS011;4727;51.202;6.344;2022-08-21T03:22:37;15.37;;;13.77;;
9374;SDS011;4727;51.202;6.344;2022-08-21T03:25:04;16.43;;;13.40;;
9374;SDS011;4727;51.202;6.344;2022-08-21T03:27:30;15.37;;;13.90;;
9374;SDS011;4727;51.202;6.344;2022-08-21T03:29:55;16.47;;;14.00;;
9374;SDS011;4727;51.202;6.344;2022-08-21T03:32:21;15.00;;;13.60;;
9374;SDS011;4727;51.202;6.344;2022-08-21T03:34:47;15.40;;;13.90;;
9374;SDS011;4727;51.202;6.344;2022-08-21T03:37:13;13.93;;;12.63;;
9374;SDS011;4727;51.202;6.344;2022-08-21T03:39:39;13.43;;;12.17;;
9374;SDS011;4727;51.202;6.344;2022-08-21T03:42:06;14.23;;;12.77;;
9374;SDS011;4727;51.202;6.344;2022-08-21T03:44:33;14.10;;;12.60;;
9374;SDS011;4727;51.202;6.344;2022-08-21T03:46:59;13.07;;;11.70;;
9374;SDS011;4727;51.202;6.344;2022-08-21T03:49:26;12.40;;;11.20;;
9374;SDS011;4727;51.202;6.344;2022-08-21T03:51:52;13.13;;;11.80;;
9374;SDS011;4727;51.202;6.344;2022-08-21T03:54:17;12.00;;;10.80;;
9374;SDS011;4727;51.202;6.344;2022-08-21T03:56:43;12.80;;;11.03;;
9374;SDS011;4727;51.202;6.344;2022-08-21T03:59:09;11.87;;;10.77;;
9374;SDS011;4727;51.202;6.344;2022-08-21T04:01:35;12.27;;;10.97;;
9374;SDS011;4727;51.202;6.344;2022-08-21T04:04:01;11.87;;;10.37;;
9374;SDS011;4727;51.202;6.344;2022-08-21T04:06:27;13.67;;;10.80;;
9374;SDS011;4727;51.202;6.344;2022-08-21T04:08:53;12.27;;;10.93;;
9374;SDS011;4727;51.202;6.344;2022-08-21T04:11:19;11.43;;;10.20;;
9374;SDS011;4727;51.202;6.344;2022-08-21T04:13:45;11.23;;;9.77;;
9374;SDS011;4727;51.202;6.344;2022-08-21T04:16:11;11.30;;;10.37;;
9374;SDS011;4727;51.202;6.344;2022-08-21T04:18:37;12.77;;;10.70;;
9374;SDS011;4727;51.202;6.344;2022-08-21T04:21:03;12.20;;;10.73;;
9374;SDS011;4727;51.202;6.344;2022-08-21T04:23:29;11.67;;;10.47;;
9374;SDS011;4727;51.202;6.344;2022-08-21T04:25:55;13.10;;;10.93;;
9374;SDS011;4727;51.202;6.344;2022-08-21T04:28:21;11.10;;;9.53;;
9374;SDS011;4727;51.202;6.344;2022-08-21T04:30:49;11.33;;;10.10;;
9374;SDS011;4727;51.202;6.344;2022-08-21T04:33:16;11.17;;;10.00;;
9374;SDS011;4727;51.202;6.344;2022-08-21T04:35:42;10.03;;;9.13;;
9374;SDS011;4727;51.202;6.344;2022-08-21T04:38:08;12.00;;;10.40;;
9374;SDS011;4727;51.202;6.344;2022-08-21T04:40:34;13.90;;;10.20;;
9374;SDS011;4727;51.202;6.344;2022-08-21T04:43:01;12.13;;;9.53;;
9374;SDS011;4727;51.202;6.344;2022-08-21T04:45:31;17.30;;;10.03;;
9374;SDS011;4727;51.202;6.344;2022-08-21T04:48:00;10.47;;;9.43;;
9374;SDS011;4727;51.202;6.344;2022-08-21T04:50:28;10.43;;;9.37;;
9374;SDS011;4727;51.202;6.344;2022-08-21T04:56:08;10.63;;;9.57;;
9374;SDS011;4727;51.202;6.344;2022-08-21T04:58:38;10.93;;;9.87;;
9374;SDS011;4727;51.202;6.344;2022-08-21T05:01:06;11.33;;;9.80;;
9374;SDS011;4727;51.202;6.344;2022-08-21T05:03:34;12.13;;;9.80;;
9374;SDS011;4727;51.202;6.344;2022-08-21T05:06:03;10.83;;;9.63;;
9374;SDS011;4727;51.202;6.344;2022-08-21T05:08:31;13.07;;;10.10;;
9374;SDS011;4727;51.202;6.344;2022-08-21T05:10:57;10.87;;;9.77;;
9374;SDS011;4727;51.202;6.344;2022-08-21T05:13:23;11.27;;;10.10;;
9374;SDS011;4727;51.202;6.344;2022-08-21T05:15:49;14.67;;;9.90;;
9374;SDS011;4727;51.202;6.344;2022-08-21T05:18:14;11.23;;;9.97;;
9374;SDS011;4727;51.202;6.344;2022-08-21T05:20:40;11.30;;;9.60;;
9374;SDS011;4727;51.202;6.344;2022-08-21T05:23:09;10.77;;;8.93;;
9374;SDS011;4727;51.202;6.344;2022-08-21T05:25:36;11.30;;;9.33;;
9374;SDS011;4727;51.202;6.344;2022-08-21T05:28:02;11.47;;;8.80;;
9374;SDS011;4727;51.202;6.344;2022-08-21T05:30:28;11.23;;;8.77;;
9374;SDS011;4727;51.202;6.344;2022-08-21T05:32:57;8.67;;;7.90;;
9374;SDS011;4727;51.202;6.344;2022-08-21T05:35:23;10.67;;;7.60;;
9374;SDS011;4727;51.202;6.344;2022-08-21T05:37:50;11.03;;;7.80;;
9374;SDS011;4727;51.202;6.344;2022-08-21T05:40:15;9.17;;;8.27;;
9374;SDS011;4727;51.202;6.344;2022-08-21T05:42:41;8.63;;;7.40;;
9374;SDS011;4727;51.202;6.344;2022-08-21T05:45:07;8.40;;;7.40;;
9374;SDS011;4727;51.202;6.344;2022-08-21T05:47:32;11.03;;;7.83;;
9374;SDS011;4727;51.202;6.344;2022-08-21T05:49:58;9.50;;;8.20;;
9374;SDS011;4727;51.202;6.344;2022-08-21T05:52:24;8.27;;;7.37;;
9374;SDS011;4727;51.202;6.344;2022-08-21T05:54:50;12.17;;;7.90;;
9374;SDS011;4727;51.202;6.344;2022-08-21T05:57:18;8.77;;;7.20;;
9374;SDS011;4727;51.202;6.344;2022-08-21T05:59:45;10.17;;;7.80;;
9374;SDS011;4727;51.202;6.344;2022-08-21T06:02:10;8.53;;;6.70;;
9374;SDS011;4727;51.202;6.344;2022-08-21T06:04:38;9.80;;;7.30;;
9374;SDS011;4727;51.202;6.344;2022-08-21T06:07:05;8.03;;;7.20;;
9374;SDS011;4727;51.202;6.344;2022-08-21T06:09:31;10.10;;;6.77;;
9374;SDS011;4727;51.202;6.344;2022-08-21T06:11:57;10.83;;;6.80;;
9374;SDS011;4727;51.202;6.344;2022-08-21T06:14:23;9.30;;;6.13;;
9374;SDS011;4727;51.202;6.344;2022-08-21T06:16:49;9.57;;;6.37;;
9374;SDS011;4727;51.202;6.344;2022-08-21T06:19:14;10.30;;;6.30;;
9374;SDS011;4727;51.202;6.344;2022-08-21T06:21:40;9.07;;;6.13;;
9374;SDS011;4727;51.202;6.344;2022-08-21T06:24:05;9.70;;;6.27;;
9374;SDS011;4727;51.202;6.344;2022-08-21T06:26:32;8.90;;;5.87;;
9374;SDS011;4727;51.202;6.344;2022-08-21T06:28:58;10.80;;;6.00;;
9374;SDS011;4727;51.202;6.344;2022-08-21T06:31:24;6.87;;;5.33;;
9374;SDS011;4727;51.202;6.344;2022-08-21T06:33:51;7.97;;;5.27;;
9374;SDS011;4727;51.202;6.344;2022-08-21T06:36:18;9.80;;;5.57;;
9374;SDS011;4727;51.202;6.344;2022-08-21T06:38:44;10.70;;;5.17;;
9374;SDS011;4727;51.202;6.344;2022-08-21T06:41:10;10.00;;;6.40;;
9374;SDS011;4727;51.202;6.344;2022-08-21T06:43:36;10.93;;;5.50;;
9374;SDS011;4727;51.202;6.344;2022-08-21T06:46:02;7.17;;;4.97;;
9374;SDS011;4727;51.202;6.344;2022-08-21T06:48:27;8.47;;;4.97;;
9374;SDS011;4727;51.202;6.344;2022-08-21T06:50:55;6.00;;;4.37;;
9374;SDS011;4727;51.202;6.344;2022-08-21T06:53:21;6.70;;;4.27;;
9374;SDS011;4727;51.202;6.344;2022-08-21T06:55:47;8.47;;;4.63;;
9374;SDS011;4727;51.202;6.344;2022-08-21T06:58:13;7.77;;;4.17;;
9374;SDS011;4727;51.202;6.344;2022-08-21T07:00:40;7.70;;;4.60;;
9374;SDS011;4727;51.202;6.344;2022-08-21T07:03:07;8.57;;;4.50;;
9374;SDS011;4727;51.202;6.344;2022-08-21T07:05:44;7.40;;;4.37;;
9374;SDS011;4727;51.202;6.344;2022-08-21T07:08:10;6.77;;;4.10;;
9374;SDS011;4727;51.202;6.344;2022-08-21T07:10:36;8.60;;;3.70;;
9374;SDS011;4727;51.202;6.344;2022-08-21T07:13:01;6.37;;;3.80;;
9374;SDS011;4727;51.202;6.344;2022-08-21T07:15:28;9.13;;;4.20;;
9374;SDS011;4727;51.202;6.344;2022-08-21T07:17:54;6.50;;;4.10;;
9374;SDS011;4727;51.202;6.344;2022-08-21T07:20:19;6.60;;;3.97;;
9374;SDS011;4727;51.202;6.344;2022-08-21T07:22:45;5.77;;;3.70;;
9374;SDS011;4727;51.202;6.344;2022-08-21T07:25:11;7.40;;;3.67;;
9374;SDS011;4727;51.202;6.344;2022-08-21T07:27:36;7.00;;;3.83;;
9374;SDS011;4727;51.202;6.344;2022-08-21T07:30:03;5.67;;;3.20;;
9374;SDS011;4727;51.202;6.344;2022-08-21T07:32:30;4.40;;;3.00;;
9374;SDS011;4727;51.202;6.344;2022-08-21T07:34:55;7.27;;;3.20;;
9374;SDS011;4727;51.202;6.344;2022-08-21T07:37:21;9.57;;;3.30;;
9374;SDS011;4727;51.202;6.344;2022-08-21T07:39:47;4.80;;;2.93;;
9374;SDS011;4727;51.202;6.344;2022-08-21T07:42:14;8.07;;;3.20;;
9374;SDS011;4727;51.202;6.344;2022-08-21T07:44:40;5.37;;;2.90;;
9374;SDS011;4727;51.202;6.344;2022-08-21T07:47:06;4.43;;;3.00;;
9374;SDS011;4727;51.202;6.344;2022-08-21T07:49:31;5.50;;;3.10;;
9374;SDS011;4727;51.202;6.344;2022-08-21T07:51:57;4.87;;;3.00;;
9374;SDS011;4727;51.202;6.344;2022-08-21T07:54:23;5.33;;;2.90;;
9374;SDS011;4727;51.202;6.344;2022-08-21T07:56:48;4.03;;;3.00;;
9374;SDS011;4727;51.202;6.344;2022-08-21T07:59:14;5.97;;;3.07;;
9374;SDS011;4727;51.202;6.344;2022-08-21T08:01:39;3.43;;;2.70;;
9374;SDS011;4727;51.202;6.344;2022-08-21T08:04:05;5.87;;;2.43;;
9374;SDS011;4727;51.202;6.344;2022-08-21T08:06:31;5.27;;;2.87;;
9374;SDS011;4727;51.202;6.344;2022-08-21T08:08:56;4.03;;;2.23;;
9374;SDS011;4727;51.202;6.344;2022-08-21T08:11:22;3.73;;;2.43;;
9374;SDS011;4727;51.202;6.344;2022-08-21T08:13:49;6.43;;;2.40;;
9374;SDS011;4727;51.202;6.344;2022-08-21T08:16:16;4.90;;;2.27;;
9374;SDS011;4727;51.202;6.344;2022-08-21T08:18:42;3.07;;;2.37;;
9374;SDS011;4727;51.202;6.344;2022-08-21T08:21:09;3.37;;;2.40;;
9374;SDS011;4727;51.202;6.344;2022-08-21T08:23:36;4.97;;;2.37;;
9374;SDS011;4727;51.202;6.344;2022-08-21T08:26:02;3.40;;;1.87;;
9374;SDS011;4727;51.202;6.344;2022-08-21T08:28:28;3.53;;;2.30;;
9374;SDS011;4727;51.202;6.344;2022-08-21T08:30:54;3.93;;;2.20;;
9374;SDS011;4727;51.202;6.344;2022-08-21T08:33:20;5.50;;;2.30;;
9374;SDS011;4727;51.202;6.344;2022-08-21T08:35:47;5.37;;;2.70;;
9374;SDS011;4727;51.202;6.344;2022-08-21T08:38:14;3.93;;;2.40;;
9374;SDS011;4727;51.202;6.344;2022-08-21T08:40:46;4.87;;;2.70;;
9374;SDS011;4727;51.202;6.344;2022-08-21T08:43:37;5.60;;;2.50;;
9374;SDS011;4727;51.202;6.344;2022-08-21T08:46:04;4.03;;;2.60;;
9374;SDS011;4727;51.202;6.344;2022-08-21T08:51:21;2.83;;;2.23;;
9374;SDS011;4727;51.202;6.344;2022-08-21T08:54:05;5.63;;;2.37;;
9374;SDS011;4727;51.202;6.344;2022-08-21T08:56:36;6.00;;;2.40;;
9374;SDS011;4727;51.202;6.344;2022-08-21T08:59:13;4.83;;;2.27;;
9374;SDS011;4727;51.202;6.344;2022-08-21T09:01:42;5.37;;;3.00;;
9374;SDS011;4727;51.202;6.344;2022-08-21T09:04:09;5.33;;;2.30;;
9374;SDS011;4727;51.202;6.344;2022-08-21T09:11:52;4.07;;;1.83;;
9374;SDS011;4727;51.202;6.344;2022-08-21T09:17:13;3.40;;;2.10;;
9374;SDS011;4727;51.202;6.344;2022-08-21T09:26:04;5.77;;;2.27;;
9374;SDS011;4727;51.202;6.344;2022-08-21T09:28:37;4.97;;;2.07;;
9374;SDS011;4727;51.202;6.344;2022-08-21T09:31:06;3.93;;;2.10;;
9374;SDS011;4727;51.202;6.344;2022-08-21T09:33:34;3.73;;;1.90;;
9374;SDS011;4727;51.202;6.344;2022-08-21T09:36:00;4.80;;;2.17;;
9374;SDS011;4727;51.202;6.344;2022-08-21T09:38:30;3.30;;;2.10;;
9374;SDS011;4727;51.202;6.344;2022-08-21T09:41:02;4.13;;;2.40;;
9374;SDS011;4727;51.202;6.344;2022-08-21T09:43:30;2.97;;;1.73;;
9374;SDS011;4727;51.202;6.344;2022-08-21T09:46:19;2.50;;;1.73;;
9374;SDS011;4727;51.202;6.344;2022-08-21T09:48:47;4.30;;;2.10;;
9374;SDS011;4727;51.202;6.344;2022-08-21T09:51:16;2.53;;;1.90;;
9374;SDS011;4727;51.202;6.344;2022-08-21T09:53:55;2.60;;;1.50;;
9374;SDS011;4727;51.202;6.344;2022-08-21T09:56:26;4.10;;;1.90;;
9374;SDS011;4727;51.202;6.344;2022-08-21T09:59:30;4.07;;;1.90;;
9374;SDS011;4727;51.202;6.344;2022-08-21T10:01:58;2.50;;;2.10;;
9374;SDS011;4727;51.202;6.344;2022-08-21T10:04:33;4.07;;;2.07;;
9374;SDS011;4727;51.202;6.344;2022-08-21T10:07:11;1.97;;;1.40;;
9374;SDS011;4727;51.202;6.344;2022-08-21T10:09:39;4.13;;;1.73;;
9374;SDS011;4727;51.202;6.344;2022-08-21T10:12:22;2.50;;;1.77;;
9374;SDS011;4727;51.202;6.344;2022-08-21T10:20:03;2.20;;;1.80;;
9374;SDS011;4727;51.202;6.344;2022-08-21T10:23:00;4.07;;;2.20;;
9374;SDS011;4727;51.202;6.344;2022-08-21T10:31:31;4.47;;;2.00;;
9374;SDS011;4727;51.202;6.344;2022-08-21T10:48:15;3.17;;;1.97;;
9374;SDS011;4727;51.202;6.344;2022-08-21T10:50:48;4.97;;;2.07;;
9374;SDS011;4727;51.202;6.344;2022-08-21T10:55:59;3.03;;;2.00;;
9374;SDS011;4727;51.202;6.344;2022-08-21T10:59:14;3.40;;;2.03;;
9374;SDS011;4727;51.202;6.344;2022-08-21T11:01:28;5.63;;;2.30;;
9374;SDS011;4727;51.202;6.344;2022-08-21T11:04:12;2.30;;;2.00;;
9374;SDS011;4727;51.202;6.344;2022-08-21T11:06:46;4.47;;;2.27;;
9374;SDS011;4727;51.202;6.344;2022-08-21T11:09:20;4.87;;;2.23;;
9374;SDS011;4727;51.202;6.344;2022-08-21T11:11:52;4.30;;;2.23;;
9374;SDS011;4727;51.202;6.344;2022-08-21T11:17:08;2.87;;;2.03;;
9374;SDS011;4727;51.202;6.344;2022-08-21T11:19:45;4.53;;;2.20;;
9374;SDS011;4727;51.202;6.344;2022-08-21T11:24:50;3.20;;;1.90;;
9374;SDS011;4727;51.202;6.344;2022-08-21T11:27:52;3.70;;;2.23;;
9374;SDS011;4727;51.202;6.344;2022-08-21T11:30:24;4.50;;;2.50;;
9374;SDS011;4727;51.202;6.344;2022-08-21T11:33:05;2.67;;;1.97;;
9374;SDS011;4727;51.202;6.344;2022-08-21T11:43:48;3.63;;;2.50;;
9374;SDS011;4727;51.202;6.344;2022-08-21T11:54:29;3.08;;;2.22;;
9374;SDS011;4727;51.202;6.344;2022-08-21T11:57:02;2.80;;;1.83;;
9374;SDS011;4727;51.202;6.344;2022-08-21T12:02:33;2.80;;;2.00;;
9374;SDS011;4727;51.202;6.344;2022-08-21T12:05:04;2.65;;;1.88;;
9374;SDS011;4727;51.202;6.344;2022-08-21T12:09:58;3.38;;;2.10;;
9374;SDS011;4727;51.202;6.344;2022-08-21T12:14:51;2.45;;;1.92;;
9374;SDS011;4727;51.202;6.344;2022-08-21T12:17:38;2.13;;;1.88;;
9374;SDS011;4727;51.202;6.344;2022-08-21T12:20:16;4.10;;;2.33;;
9374;SDS011;4727;51.202;6.344;2022-08-21T12:23:02;3.40;;;2.10;;
9374;SDS011;4727;51.202;6.344;2022-08-21T12:25:42;4.10;;;1.90;;
9374;SDS011;4727;51.202;6.344;2022-08-21T12:28:12;4.50;;;2.30;;
9374;SDS011;4727;51.202;6.344;2022-08-21T12:30:46;4.20;;;2.13;;
9374;SDS011;4727;51.202;6.344;2022-08-21T12:33:26;2.90;;;1.90;;
9374;SDS011;4727;51.202;6.344;2022-08-21T12:36:11;4.47;;;2.28;;
9374;SDS011;4727;51.202;6.344;2022-08-21T12:38:47;3.00;;;1.90;;
9374;SDS011;4727;51.202;6.344;2022-08-21T12:41:19;3.85;;;2.25;;
9374;SDS011;4727;51.202;6.344;2022-08-21T12:43:48;4.97;;;2.28;;
9374;SDS011;4727;51.202;6.344;2022-08-21T12:46:27;4.82;;;1.92;;
9374;SDS011;4727;51.202;6.344;2022-08-21T12:48:58;3.45;;;1.80;;
9374;SDS011;4727;51.202;6.344;2022-08-21T12:51:29;4.40;;;1.92;;
9374;SDS011;4727;51.202;6.344;2022-08-21T12:54:07;2.47;;;2.03;;
9374;SDS011;4727;51.202;6.344;2022-08-21T12:56:33;3.25;;;2.25;;
9374;SDS011;4727;51.202;6.344;2022-08-21T12:59:03;3.40;;;2.08;;
9374;SDS011;4727;51.202;6.344;2022-08-21T13:01:44;5.55;;;2.47;;
9374;SDS011;4727;51.202;6.344;2022-08-21T13:04:15;2.00;;;1.80;;
9374;SDS011;4727;51.202;6.344;2022-08-21T13:06:45;4.03;;;2.25;;
9374;SDS011;4727;51.202;6.344;2022-08-21T13:09:16;3.28;;;1.92;;
9374;SDS011;4727;51.202;6.344;2022-08-21T13:11:45;3.00;;;2.08;;
9374;SDS011;4727;51.202;6.344;2022-08-21T13:14:14;4.63;;;2.35;;
9374;SDS011;4727;51.202;6.344;2022-08-21T13:16:48;2.53;;;1.83;;
9374;SDS011;4727;51.202;6.344;2022-08-21T13:19:22;3.40;;;2.33;;
9374;SDS011;4727;51.202;6.344;2022-08-21T13:21:49;2.70;;;1.80;;
9374;SDS011;4727;51.202;6.344;2022-08-21T13:26:48;2.47;;;1.60;;
9374;SDS011;4727;51.202;6.344;2022-08-21T13:29:16;1.65;;;1.55;;
9374;SDS011;4727;51.202;6.344;2022-08-21T13:31:54;2.47;;;1.90;;
9374;SDS011;4727;51.202;6.344;2022-08-21T13:34:23;3.30;;;1.80;;
9374;SDS011;4727;51.202;6.344;2022-08-21T13:37:00;3.92;;;2.00;;
9374;SDS011;4727;51.202;6.344;2022-08-21T13:39:31;2.63;;;1.80;;
9374;SDS011;4727;51.202;6.344;2022-08-21T13:41:59;3.03;;;1.77;;
9374;SDS011;4727;51.202;6.344;2022-08-21T13:44:32;5.32;;;1.92;;
9374;SDS011;4727;51.202;6.344;2022-08-21T13:47:06;3.42;;;1.98;;
9374;SDS011;4727;51.202;6.344;2022-08-21T13:49:35;2.80;;;1.88;;
9374;SDS011;4727;51.202;6.344;2022-08-21T13:52:04;2.75;;;2.05;;
9374;SDS011;4727;51.202;6.344;2022-08-21T13:54:38;3.70;;;2.10;;
9374;SDS011;4727;51.202;6.344;2022-08-21T13:57:16;2.65;;;1.90;;
9374;SDS011;4727;51.202;6.344;2022-08-21T13:59:43;4.03;;;1.95;;
9374;SDS011;4727;51.202;6.344;2022-08-21T14:02:19;3.10;;;2.03;;
9374;SDS011;4727;51.202;6.344;2022-08-21T14:04:51;3.05;;;1.65;;
9374;SDS011;4727;51.202;6.344;2022-08-21T14:07:30;3.22;;;1.95;;
9374;SDS011;4727;51.202;6.344;2022-08-21T14:10:01;4.78;;;2.20;;
9374;SDS011;4727;51.202;6.344;2022-08-21T14:12:38;4.00;;;2.22;;
9374;SDS011;4727;51.202;6.344;2022-08-21T14:15:08;3.40;;;2.08;;
9374;SDS011;4727;51.202;6.344;2022-08-21T14:17:38;1.75;;;1.65;;
9374;SDS011;4727;51.202;6.344;2022-08-21T14:20:07;4.70;;;1.90;;
9374;SDS011;4727;51.202;6.344;2022-08-21T14:22:37;4.32;;;2.47;;
9374;SDS011;4727;51.202;6.344;2022-08-21T14:30:42;3.97;;;2.35;;
9374;SDS011;4727;51.202;6.344;2022-08-21T14:33:10;3.10;;;2.10;;
9374;SDS011;4727;51.202;6.344;2022-08-21T14:35:38;2.65;;;1.90;;
9374;SDS011;4727;51.202;6.344;2022-08-21T14:38:17;4.47;;;2.47;;
9374;SDS011;4727;51.202;6.344;2022-08-21T14:40:47;2.25;;;2.05;;
9374;SDS011;4727;51.202;6.344;2022-08-21T14:43:14;3.13;;;1.92;;
9374;SDS011;4727;51.202;6.344;2022-08-21T14:45:40;3.78;;;2.10;;
9374;SDS011;4727;51.202;6.344;2022-08-21T14:48:06;2.60;;;2.10;;
9374;SDS011;4727;51.202;6.344;2022-08-21T14:50:32;2.38;;;2.17;;
9374;SDS011;4727;51.202;6.344;2022-08-21T14:52:58;3.67;;;2.40;;
9374;SDS011;4727;51.202;6.344;2022-08-21T14:55:24;2.05;;;1.85;;
9374;SDS011;4727;51.202;6.344;2022-08-21T14:57:51;3.65;;;2.05;;
9374;SDS011;4727;51.202;6.344;2022-08-21T15:00:19;2.70;;;2.10;;
9374;SDS011;4727;51.202;6.344;2022-08-21T15:02:48;2.20;;;2.00;;
9374;SDS011;4727;51.202;6.344;2022-08-21T15:05:14;4.63;;;2.40;;
9374;SDS011;4727;51.202;6.344;2022-08-21T15:07:40;5.65;;;4.00;;
9374;SDS011;4727;51.202;6.344;2022-08-21T15:10:09;2.50;;;2.05;;
9374;SDS011;4727;51.202;6.344;2022-08-21T15:12:35;2.83;;;2.28;;
9374;SDS011;4727;51.202;6.344;2022-08-21T15:15:02;2.78;;;1.65;;
9374;SDS011;4727;51.202;6.344;2022-08-21T15:17:30;2.22;;;2.03;;
9374;SDS011;4727;51.202;6.344;2022-08-21T15:19:56;3.47;;;2.45;;
9374;SDS011;4727;51.202;6.344;2022-08-21T15:22:22;2.53;;;2.13;;
9374;SDS011;4727;51.202;6.344;2022-08-21T15:24:48;3.05;;;1.60;;
9374;SDS011;4727;51.202;6.344;2022-08-21T15:27:13;3.15;;;2.17;;
9374;SDS011;4727;51.202;6.344;2022-08-21T15:29:41;5.18;;;2.28;;
9374;SDS011;4727;51.202;6.344;2022-08-21T15:32:21;3.00;;;2.08;;
9374;SDS011;4727;51.202;6.344;2022-08-21T15:34:50;3.63;;;2.40;;
9374;SDS011;4727;51.202;6.344;2022-08-21T15:37:17;2.55;;;1.85;;
9374;SDS011;4727;51.202;6.344;2022-08-21T15:39:43;2.95;;;1.75;;
9374;SDS011;4727;51.202;6.344;2022-08-21T15:42:09;2.60;;;1.52;;
9374;SDS011;4727;51.202;6.344;2022-08-21T15:44:36;2.97;;;2.10;;
9374;SDS011;4727;51.202;6.344;2022-08-21T15:47:02;4.32;;;2.00;;
9374;SDS011;4727;51.202;6.344;2022-08-21T15:49:28;4.47;;;2.38;;
9374;SDS011;4727;51.202;6.344;2022-08-21T15:51:54;6.13;;;2.40;;
9374;SDS011;4727;51.202;6.344;2022-08-21T15:54:19;5.00;;;2.63;;
9374;SDS011;4727;51.202;6.344;2022-08-21T15:56:46;3.17;;;1.92;;
9374;SDS011;4727;51.202;6.344;2022-08-21T15:59:17;3.25;;;2.38;;
9374;SDS011;4727;51.202;6.344;2022-08-21T16:01:47;2.92;;;1.70;;
9374;SDS011;4727;51.202;6.344;2022-08-21T16:04:20;4.13;;;2.28;;
9374;SDS011;4727;51.202;6.344;2022-08-21T16:06:48;4.70;;;2.38;;
9374;SDS011;4727;51.202;6.344;2022-08-21T16:09:14;5.38;;;2.20;;
9374;SDS011;4727;51.202;6.344;2022-08-21T16:11:41;3.45;;;2.50;;
9374;SDS011;4727;51.202;6.344;2022-08-21T16:14:07;2.95;;;2.17;;
9374;SDS011;4727;51.202;6.344;2022-08-21T16:16:33;5.40;;;2.45;;
9374;SDS011;4727;51.202;6.344;2022-08-21T16:19:00;4.43;;;2.55;;
9374;SDS011;4727;51.202;6.344;2022-08-21T16:21:27;3.80;;;2.50;;
9374;SDS011;4727;51.202;6.344;2022-08-21T16:23:53;4.05;;;2.17;;
9374;SDS011;4727;51.202;6.344;2022-08-21T16:26:18;4.25;;;2.67;;
9374;SDS011;4727;51.202;6.344;2022-08-21T16:28:44;3.22;;;2.53;;
9374;SDS011;4727;51.202;6.344;2022-08-21T16:31:10;3.53;;;2.38;;
9374;SDS011;4727;51.202;6.344;2022-08-21T16:33:38;4.63;;;2.28;;
9374;SDS011;4727;51.202;6.344;2022-08-21T16:36:07;4.40;;;2.28;;
9374;SDS011;4727;51.202;6.344;2022-08-21T16:38:34;3.17;;;1.73;;
9374;SDS011;4727;51.202;6.344;2022-08-21T16:41:02;3.90;;;2.05;;
9374;SDS011;4727;51.202;6.344;2022-08-21T16:43:32;4.57;;;2.25;;
9374;SDS011;4727;51.202;6.344;2022-08-21T16:45:59;3.03;;;2.17;;